Time;durP1;ratioP1;P1;durP2;ratioP2;P2;SDS_P1;SDS_P2;PMS_P1;PMS_P2;Temp;Humidity;BMP_temperature;BMP_pressure;BME280_temperature;BME280_humidity;BME280_pressure;Samples;Min_cycle;Max_cycle;Signal;HPM_P1;HPM_P2
2023/05/02 00:01:20;;;;;;;14.68;6.63;;;10.10;99.90;;;;;;5069675;28;20055;-75
2023/05/02 00:03:46;;;;;;;16.75;6.30;;;10.00;99.90;;;;;;5055126;28;20040;-76
2023/05/02 00:06:12;;;;;;;16.45;6.32;;;9.90;99.90;;;;;;5055725;28;20052;-75
2023/05/02 00:08:37;;;;;;;17.77;6.13;;;9.90;99.90;;;;;;5069815;28;20038;-74
2023/05/02 00:11:04;;;;;;;15.57;5.70;;;9.80;99.90;;;;;;5051403;28;20033;-75
2023/05/02 00:13:30;;;;;;;15.20;5.53;;;9.80;99.90;;;;;;5057230;28;20024;-75
2023/05/02 00:15:55;;;;;;;11.15;4.53;;;9.70;99.90;;;;;;5067548;28;20061;-75
2023/05/02 00:18:23;;;;;;;15.32;4.60;;;9.70;99.90;;;;;;5068216;28;20023;-75
2023/05/02 00:20:49;;;;;;;16.35;5.05;;;9.60;99.90;;;;;;5072649;28;20119;-75
2023/05/02 00:23:15;;;;;;;13.60;5.05;;;9.70;99.90;;;;;;5050998;28;20028;-75
2023/05/02 00:25:47;;;;;;;14.85;5.38;;;9.70;99.90;;;;;;5066220;28;20051;-75
2023/05/02 00:28:12;;;;;;;14.65;5.45;;;9.70;99.90;;;;;;5088367;28;20031;-75
2023/05/02 00:30:45;;;;;;;13.57;5.15;;;9.70;99.90;;;;;;5065179;28;20249;-75
2023/05/02 00:33:13;;;;;;;12.88;5.20;;;9.70;99.90;;;;;;5060970;28;20199;-75
2023/05/02 00:35:39;;;;;;;13.55;5.40;;;9.70;99.90;;;;;;5069268;28;20120;-75
2023/05/02 00:38:05;;;;;;;15.13;5.25;;;9.70;99.90;;;;;;5073584;28;20186;-75
2023/05/02 00:40:31;;;;;;;13.52;5.07;;;9.70;99.90;;;;;;5093429;28;20057;-75
2023/05/02 00:42:56;;;;;;;12.68;5.20;;;9.80;99.90;;;;;;5087358;28;20285;-75
2023/05/02 00:45:22;;;;;;;12.38;4.93;;;9.70;99.90;;;;;;5069817;28;20071;-75
2023/05/02 00:47:49;;;;;;;12.85;4.88;;;9.70;99.90;;;;;;5057832;28;20044;-75
2023/05/02 00:50:16;;;;;;;13.43;5.20;;;10.60;99.90;;;;;;5076456;28;20032;-75
2023/05/02 00:52:42;;;;;;;13.25;5.05;;;9.70;99.90;;;;;;5066725;28;20294;-75
2023/05/02 00:55:08;;;;;;;13.75;5.00;;;9.70;99.90;;;;;;5068832;28;20232;-75
2023/05/02 00:57:34;;;;;;;17.08;4.90;;;9.70;99.90;;;;;;5061331;28;20032;-75
2023/05/02 01:00:00;;;;;;;14.95;5.15;;;9.50;99.90;;;;;;5074891;28;20032;-75
2023/05/02 01:02:47;;;;;;;14.40;4.93;;;9.80;99.90;;;;;;5071726;28;20044;-75
2023/05/02 01:05:28;;;;;;;13.85;4.18;;;9.70;99.90;;;;;;5069736;28;20038;-75
2023/05/02 01:08:18;;;;;;;13.05;4.43;;;9.70;99.90;;;;;;5048013;28;20028;-75
2023/05/02 01:10:48;;;;;;;11.68;3.88;;;9.70;99.90;;;;;;5071555;28;20040;-75
2023/05/02 01:13:21;;;;;;;13.93;4.20;;;9.70;99.90;;;;;;5079711;28;20122;-75
2023/05/02 01:15:50;;;;;;;10.55;3.85;;;9.70;99.90;;;;;;5058270;28;20174;-75
2023/05/02 01:18:22;;;;;;;12.68;4.03;;;9.70;99.90;;;;;;5067224;28;20044;-75
2023/05/02 01:20:53;;;;;;;11.68;4.05;;;9.70;99.90;;;;;;5074573;28;20043;-75
2023/05/02 01:23:31;;;;;;;15.10;4.93;;;9.80;99.90;;;;;;5073892;28;20074;-75
2023/05/02 01:26:32;;;;;;;12.38;4.25;;;9.80;99.90;;;;;;5069919;28;20234;-75
2023/05/02 01:29:03;;;;;;;13.52;4.18;;;9.80;99.90;;;;;;5074314;28;20123;-75
2023/05/02 01:31:34;;;;;;;15.93;4.70;;;9.70;99.90;;;;;;5076444;28;20099;-75
2023/05/02 01:34:01;;;;;;;16.67;4.40;;;9.70;99.90;;;;;;5075008;28;20236;-75
2023/05/02 01:36:30;;;;;;;18.02;4.45;;;9.60;99.90;;;;;;5069743;28;20066;-75
2023/05/02 01:38:57;;;;;;;20.90;4.32;;;9.50;99.90;;;;;;5078827;28;20028;-76
2023/05/02 01:41:28;;;;;;;19.23;5.15;;;8.40;99.90;;;;;;5078991;28;20054;-76
2023/05/02 01:43:57;;;;;;;18.63;4.55;;;9.20;99.90;;;;;;5081117;28;20043;-75
2023/05/02 01:46:27;;;;;;;12.48;3.85;;;9.10;99.90;;;;;;5078550;28;20048;-75
2023/05/02 01:48:56;;;;;;;19.58;4.18;;;9.00;99.90;;;;;;5066193;28;20048;-75
2023/05/02 01:51:29;;;;;;;17.90;4.35;;;8.90;99.90;;;;;;5076300;28;20032;-75
2023/05/02 01:53:55;;;;;;;;;;;8.80;99.90;;;;;;5074974;28;20036;-75
2023/05/02 01:56:24;;;;;;;19.15;4.40;;;8.80;99.90;;;;;;5049811;28;19946;-75
2023/05/02 01:58:53;;;;;;;15.82;3.90;;;8.60;99.90;;;;;;5075992;28;20159;-76
2023/05/02 02:01:20;;;;;;;24.00;4.80;;;8.60;99.90;;;;;;5071306;28;20105;-75
2023/05/02 02:03:46;;;;;;;21.65;4.85;;;8.60;99.90;;;;;;5078066;28;20289;-75
2023/05/02 02:06:13;;;;;;;21.13;4.80;;;8.60;99.90;;;;;;5066573;28;20116;-75
2023/05/02 02:08:39;;;;;;;21.90;5.20;;;8.50;99.90;;;;;;5058368;28;20305;-75
2023/05/02 02:11:10;;;;;;;19.75;4.65;;;8.50;99.90;;;;;;5072192;28;20025;-75
2023/05/02 02:13:47;;;;;;;22.27;4.82;;;8.50;99.90;;;;;;5078251;28;20278;-75
2023/05/02 02:16:21;;;;;;;20.67;5.05;;;8.50;99.90;;;;;;5075097;28;20176;-75
2023/05/02 02:18:47;;;;;;;20.67;5.05;;;8.50;99.90;;;;;;5074617;28;20059;-75
2023/05/02 02:21:17;;;;;;;26.98;5.75;;;8.50;99.90;;;;;;5088686;28;20063;-75
2023/05/02 02:23:47;;;;;;;17.85;4.68;;;8.50;99.90;;;;;;5078989;28;20024;-75
2023/05/02 02:26:14;;;;;;;20.60;5.18;;;8.50;99.90;;;;;;5067459;28;20372;-75
2023/05/02 02:28:40;;;;;;;20.77;4.97;;;8.50;99.90;;;;;;5053147;28;20081;-75
2023/05/02 02:31:06;;;;;;;22.17;4.93;;;8.50;99.90;;;;;;5073320;28;20076;-75
2023/05/02 02:33:32;;;;;;;24.23;5.18;;;8.50;99.90;;;;;;5090722;28;20162;-75
2023/05/02 02:36:09;;;;;;;25.85;5.32;;;8.40;99.90;;;;;;5057246;28;20058;-75
2023/05/02 02:38:56;;;;;;;23.60;4.90;;;8.40;99.90;;;;;;5057133;28;20220;-75
2023/05/02 02:41:30;;;;;;;25.30;5.22;;;8.40;99.90;;;;;;5066941;28;20056;-75
2023/05/02 02:44:08;;;;;;;18.67;4.78;;;8.30;99.90;;;;;;5066842;28;20210;-75
2023/05/02 02:46:43;;;;;;;18.80;4.93;;;8.30;99.90;;;;;;5093874;28;20051;-75
2023/05/02 02:49:31;;;;;;;21.73;4.70;;;8.30;99.90;;;;;;5076740;28;20338;-76
2023/05/02 02:52:16;;;;;;;19.25;4.78;;;8.30;99.90;;;;;;5067260;28;20038;-76
2023/05/02 02:54:50;;;;;;;18.17;4.57;;;8.30;99.90;;;;;;5076360;28;20101;-75
2023/05/02 02:57:23;;;;;;;22.70;4.60;;;8.20;99.90;;;;;;5055562;28;20281;-75
2023/05/02 02:59:58;;;;;;;21.92;4.80;;;8.20;99.90;;;;;;5069308;28;20128;-75
2023/05/02 03:02:29;;;;;;;18.48;4.40;;;8.20;99.90;;;;;;5072427;28;20055;-76
2023/05/02 03:04:57;;;;;;;24.90;4.68;;;8.20;99.90;;;;;;5062708;28;20020;-75
2023/05/02 03:07:23;;;;;;;16.88;4.13;;;8.20;99.90;;;;;;5077270;28;20093;-75
2023/05/02 03:09:49;;;;;;;15.75;3.83;;;8.10;99.90;;;;;;5072258;28;20169;-75
2023/05/02 03:12:14;;;;;;;15.35;3.80;;;8.10;99.90;;;;;;5071069;28;20158;-75
2023/05/02 03:14:40;;;;;;;18.52;3.80;;;8.10;99.90;;;;;;5074584;28;20059;-75
2023/05/02 03:17:07;;;;;;;17.38;3.50;;;8.10;99.90;;;;;;5072132;28;20048;-75
2023/05/02 03:19:33;;;;;;;16.92;3.72;;;8.10;99.90;;;;;;5051628;28;20031;-75
2023/05/02 03:21:59;;;;;;;23.13;4.10;;;8.00;99.90;;;;;;5072538;28;20246;-75
2023/05/02 03:24:26;;;;;;;18.30;4.18;;;8.00;99.90;;;;;;5069150;28;20248;-75
2023/05/02 03:26:56;;;;;;;15.35;3.35;;;7.90;99.90;;;;;;5073603;28;20083;-75
2023/05/02 03:29:22;;;;;;;20.00;4.53;;;7.90;99.90;;;;;;5072195;28;20024;-75
2023/05/02 03:31:48;;;;;;;19.45;3.40;;;7.90;99.90;;;;;;5060353;28;20337;-75
2023/05/02 03:34:13;;;;;;;17.95;3.45;;;8.00;99.90;;;;;;5059058;28;20040;-75
2023/05/02 03:36:39;;;;;;;13.82;3.40;;;7.90;99.90;;;;;;5056900;28;20181;-75
2023/05/02 03:39:05;;;;;;;14.48;3.65;;;7.80;99.90;;;;;;5072648;28;20062;-76
2023/05/02 03:41:31;;;;;;;17.63;4.22;;;7.80;99.90;;;;;;5046276;28;20262;-75
2023/05/02 03:43:57;;;;;;;15.85;3.85;;;7.80;99.90;;;;;;5074507;28;20073;-75
2023/05/02 03:46:23;;;;;;;16.00;3.53;;;7.80;99.90;;;;;;5056279;28;20060;-75
2023/05/02 03:48:49;;;;;;;16.10;3.83;;;7.80;99.90;;;;;;5072697;28;20052;-75
2023/05/02 03:51:15;;;;;;;12.95;3.10;;;7.80;99.90;;;;;;5058581;28;20029;-75
2023/05/02 03:53:41;;;;;;;15.43;3.58;;;7.80;99.90;;;;;;5067472;28;20032;-75
2023/05/02 03:56:07;;;;;;;12.70;3.33;;;7.80;99.90;;;;;;5074570;28;20051;-75
2023/05/02 03:58:35;;;;;;;11.30;2.88;;;7.70;99.90;;;;;;5071045;28;20036;-75
2023/05/02 04:01:01;;;;;;;10.10;3.00;;;7.70;99.90;;;;;;5057913;28;20091;-75
2023/05/02 04:03:31;;;;;;;12.93;2.58;;;7.70;99.90;;;;;;5052278;28;20040;-75
2023/05/02 04:05:56;;;;;;;12.35;2.75;;;7.70;99.90;;;;;;5057492;28;20048;-75
2023/05/02 04:08:22;;;;;;;12.35;2.85;;;7.70;99.90;;;;;;5046753;28;20028;-75
2023/05/02 04:10:51;;;;;;;13.32;3.10;;;7.70;99.90;;;;;;5072388;28;20032;-75
2023/05/02 04:13:17;;;;;;;9.93;2.47;;;7.60;99.90;;;;;;5075187;28;20446;-75
2023/05/02 04:15:44;;;;;;;9.35;2.45;;;7.60;99.90;;;;;;5058556;28;20039;-75
2023/05/02 04:18:10;;;;;;;8.90;2.20;;;7.70;99.90;;;;;;5076318;28;20186;-75
2023/05/02 04:20:35;;;;;;;12.77;2.30;;;7.60;99.90;;;;;;5068215;28;20048;-75
2023/05/02 04:23:01;;;;;;;10.88;2.55;;;7.50;99.90;;;;;;5052701;28;20021;-75
2023/05/02 04:25:28;;;;;;;10.68;2.30;;;7.50;99.90;;;;;;5065400;28;20105;-75
2023/05/02 04:27:53;;;;;;;14.30;2.53;;;7.50;99.90;;;;;;5072353;28;20047;-75
2023/05/02 04:30:19;;;;;;;10.60;2.55;;;7.50;99.90;;;;;;5048159;28;20178;-75
2023/05/02 04:32:45;;;;;;;10.80;2.65;;;8.20;99.90;;;;;;5069614;28;20044;-75
2023/05/02 04:35:11;;;;;;;8.63;2.35;;;7.50;99.90;;;;;;5063616;28;20316;-75
2023/05/02 04:37:37;;;;;;;10.10;2.40;;;7.50;99.90;;;;;;5069734;28;20036;-75
2023/05/02 04:40:03;;;;;;;11.40;2.65;;;7.50;99.90;;;;;;5054673;28;20028;-75
2023/05/02 04:42:29;;;;;;;10.50;2.70;;;7.50;99.90;;;;;;5068139;28;20032;-74
2023/05/02 04:44:54;;;;;;;10.73;2.50;;;7.50;99.90;;;;;;5048323;28;20091;-74
2023/05/02 04:47:20;;;;;;;11.45;2.90;;;7.40;99.90;;;;;;5056256;28;20038;-75
2023/05/02 04:49:46;;;;;;;8.88;2.22;;;7.50;99.90;;;;;;5056638;28;20045;-75
2023/05/02 04:52:11;;;;;;;14.93;2.75;;;7.40;99.90;;;;;;5068955;28;20055;-75
2023/05/02 04:54:37;;;;;;;10.50;2.47;;;7.40;99.90;;;;;;5041625;28;20048;-75
2023/05/02 04:57:05;;;;;;;10.85;2.50;;;7.40;99.90;;;;;;5073173;28;20034;-75
2023/05/02 04:59:31;;;;;;;10.85;2.80;;;7.40;99.90;;;;;;5056379;28;20030;-75
2023/05/02 05:01:57;;;;;;;12.52;2.83;;;7.40;99.90;;;;;;5057367;28;20028;-75
2023/05/02 05:04:23;;;;;;;13.10;2.80;;;7.40;99.90;;;;;;5072373;28;20040;-75
2023/05/02 05:06:49;;;;;;;10.57;2.67;;;7.40;99.90;;;;;;5070396;28;20246;-75
2023/05/02 05:09:15;;;;;;;16.90;3.28;;;7.50;99.90;;;;;;5064578;28;20025;-75
2023/05/02 05:11:45;;;;;;;12.15;2.97;;;7.50;99.90;;;;;;5078183;28;20036;-75
2023/05/02 05:14:11;;;;;;;9.82;2.78;;;7.50;99.90;;;;;;5069105;28;20131;-75
2023/05/02 05:16:36;;;;;;;13.52;3.80;;;7.50;99.90;;;;;;5078309;28;20269;-76
2023/05/02 05:19:03;;;;;;;13.50;3.00;;;7.50;99.90;;;;;;5055704;28;20036;-75
2023/05/02 05:21:28;;;;;;;14.50;3.67;;;7.50;99.90;;;;;;5068960;28;20032;-75
2023/05/02 05:23:54;;;;;;;14.13;3.25;;;7.50;99.90;;;;;;5065114;28;20052;-74
2023/05/02 05:26:20;;;;;;;14.77;3.35;;;7.50;99.90;;;;;;5057513;28;20071;-75
2023/05/02 05:28:45;;;;;;;12.10;3.42;;;7.50;99.90;;;;;;5057785;28;20289;-74
2023/05/02 05:31:15;;;;;;;12.55;3.42;;;7.50;99.90;;;;;;5068070;28;20058;-74
2023/05/02 05:33:41;;;;;;;11.30;3.20;;;7.50;99.90;;;;;;5046207;28;20166;-74
2023/05/02 05:36:08;;;;;;;15.20;3.47;;;7.50;99.90;;;;;;5057326;28;20038;-74
2023/05/02 05:38:34;;;;;;;17.30;3.55;;;7.50;99.90;;;;;;5075353;28;20040;-74
2023/05/02 05:41:00;;;;;;;15.38;3.03;;;7.50;99.90;;;;;;5065053;28;20039;-74
2023/05/02 05:43:27;;;;;;;11.80;3.80;;;7.50;99.90;;;;;;5060700;28;20032;-75
2023/05/02 05:45:53;;;;;;;12.27;3.10;;;7.50;99.90;;;;;;5065774;28;20025;-74
2023/05/02 05:48:19;;;;;;;15.52;3.15;;;7.50;99.90;;;;;;5057117;28;20095;-74
2023/05/02 05:50:45;;;;;;;17.02;3.53;;;7.50;99.90;;;;;;5054640;28;20270;-74
2023/05/02 05:53:15;;;;;;;12.07;3.25;;;7.50;99.90;;;;;;5052073;28;20052;-74
2023/05/02 05:55:41;;;;;;;19.40;3.70;;;7.70;99.90;;;;;;5065680;28;20075;-75
2023/05/02 05:58:07;;;;;;;16.27;3.42;;;7.60;99.90;;;;;;5073469;28;20036;-74
2023/05/02 06:00:37;;;;;;;17.85;3.30;;;7.60;99.90;;;;;;5059392;28;20182;-74
2023/05/02 06:03:03;;;;;;;12.13;3.45;;;7.70;99.90;;;;;;5075256;28;20028;-74
2023/05/02 06:05:29;;;;;;;13.80;3.45;;;7.70;99.90;;;;;;5080278;28;20040;-74
2023/05/02 06:07:58;;;;;;;12.25;2.95;;;7.70;99.90;;;;;;5078445;28;20314;-75
2023/05/02 06:10:24;;;;;;;21.58;3.45;;;7.70;99.90;;;;;;5074993;28;20048;-75
2023/05/02 06:12:50;;;;;;;13.27;3.03;;;7.70;99.90;;;;;;5058689;28;20100;-75
2023/05/02 06:15:16;;;;;;;11.82;2.83;;;7.70;99.90;;;;;;5060823;28;20044;-75
2023/05/02 06:17:42;;;;;;;12.88;3.15;;;7.80;99.90;;;;;;5073709;28;20024;-75
2023/05/02 06:20:08;;;;;;;14.50;2.90;;;7.80;99.90;;;;;;5083209;28;20238;-75
2023/05/02 06:22:34;;;;;;;10.48;3.10;;;7.80;99.90;;;;;;5058583;28;20107;-75
2023/05/02 06:25:00;;;;;;;11.95;2.85;;;7.80;99.90;;;;;;5069616;28;20024;-75
2023/05/02 06:27:26;;;;;;;14.15;3.53;;;7.80;99.90;;;;;;5065942;28;20048;-75
2023/05/02 06:29:52;;;;;;;9.48;2.78;;;7.90;99.90;;;;;;5055606;28;20067;-75
2023/05/02 06:32:18;;;;;;;11.75;2.97;;;7.90;99.90;;;;;;5084854;28;20055;-75
2023/05/02 06:34:45;;;;;;;14.15;3.03;;;7.90;99.90;;;;;;5050800;28;20096;-75
2023/05/02 06:37:10;;;;;;;15.73;3.25;;;7.90;99.90;;;;;;5062052;28;20047;-75
2023/05/02 06:39:36;;;;;;;13.52;2.90;;;7.90;99.90;;;;;;5074481;28;20040;-74
2023/05/02 06:42:02;;;;;;;12.05;3.03;;;7.90;99.90;;;;;;5076495;28;20166;-74
2023/05/02 06:44:28;;;;;;;13.50;3.33;;;7.90;99.90;;;;;;5066192;28;20040;-74
2023/05/02 06:46:54;;;;;;;12.77;2.90;;;7.90;99.90;;;;;;5059625;28;20046;-74
2023/05/02 06:49:21;;;;;;;13.35;3.10;;;7.90;99.90;;;;;;5076385;28;20040;-75
2023/05/02 06:51:47;;;;;;;12.45;3.33;;;8.00;99.90;;;;;;5050455;28;20044;-75
2023/05/02 06:54:14;;;;;;;11.93;3.00;;;8.10;99.90;;;;;;5024625;28;20092;-75
2023/05/02 06:56:40;;;;;;;14.98;3.10;;;8.20;99.90;;;;;;5077313;28;20071;-75
2023/05/02 06:59:06;;;;;;;12.10;2.85;;;8.30;99.90;;;;;;5055643;28;20285;-75
2023/05/02 07:01:32;;;;;;;13.73;3.00;;;8.40;99.90;;;;;;5058007;28;20210;-75
2023/05/02 07:03:58;;;;;;;13.35;2.90;;;8.40;99.90;;;;;;5066626;28;20021;-75
2023/05/02 07:06:23;;;;;;;11.88;3.05;;;8.40;99.90;;;;;;5068012;28;20040;-75
2023/05/02 07:08:49;;;;;;;10.75;3.20;;;8.40;99.90;;;;;;5063130;28;20171;-75
2023/05/02 07:11:15;;;;;;;15.25;3.17;;;8.40;99.90;;;;;;5072141;28;20151;-75
2023/05/02 07:13:42;;;;;;;17.20;3.10;;;8.40;99.90;;;;;;5066108;28;20261;-75
2023/05/02 07:16:07;;;;;;;11.68;2.90;;;8.40;99.90;;;;;;5067531;28;20036;-75
2023/05/02 07:18:33;;;;;;;11.48;3.33;;;8.40;99.90;;;;;;5053785;28;20031;-75
2023/05/02 07:21:00;;;;;;;13.00;3.20;;;8.40;99.90;;;;;;5056902;28;20039;-75
2023/05/02 07:23:26;;;;;;;10.77;2.70;;;8.40;99.90;;;;;;5066635;28;20269;-75
2023/05/02 07:25:52;;;;;;;9.82;3.05;;;8.40;99.90;;;;;;5059638;28;20107;-75
2023/05/02 07:28:17;;;;;;;12.65;3.03;;;8.50;99.90;;;;;;5064460;28;20310;-75
2023/05/02 07:30:43;;;;;;;14.55;3.15;;;8.50;99.90;;;;;;5070734;28;20230;-75
2023/05/02 07:33:09;;;;;;;11.35;2.90;;;8.50;99.90;;;;;;5063879;28;20041;-75
2023/05/02 07:35:34;;;;;;;15.27;3.35;;;8.50;99.90;;;;;;5052397;28;20059;-74
2023/05/02 07:38:00;;;;;;;12.75;3.30;;;8.50;99.90;;;;;;5067132;28;20032;-75
2023/05/02 07:40:27;;;;;;;12.90;3.30;;;8.50;99.90;;;;;;5061211;28;20043;-75
2023/05/02 07:42:53;;;;;;;12.85;3.35;;;8.50;99.90;;;;;;5057642;28;20024;-75
2023/05/02 07:45:18;;;;;;;11.35;2.90;;;8.50;99.90;;;;;;5066236;28;20055;-74
2023/05/02 07:47:45;;;;;;;15.82;3.45;;;8.50;99.90;;;;;;5074968;28;20032;-75
2023/05/02 07:50:11;;;;;;;12.80;2.80;;;8.50;99.90;;;;;;5064750;28;20097;-75
2023/05/02 07:52:37;;;;;;;18.73;2.72;;;8.60;99.90;;;;;;5066848;28;20220;-75
2023/05/02 07:55:03;;;;;;;13.40;2.95;;;8.70;99.90;;;;;;5071077;28;20023;-75
2023/05/02 07:57:30;;;;;;;9.93;2.28;;;8.80;99.90;;;;;;5051299;28;20267;-75
2023/05/02 07:59:56;;;;;;;8.98;2.08;;;9.00;99.90;;;;;;5059502;28;20021;-75
2023/05/02 08:02:22;;;;;;;8.80;2.17;;;9.10;99.90;;;;;;5065534;28;20051;-75
2023/05/02 08:04:48;;;;;;;8.05;2.25;;;9.10;99.90;;;;;;5067134;28;20039;-75
2023/05/02 08:07:14;;;;;;;7.15;2.13;;;9.10;99.90;;;;;;5040700;28;20036;-75
2023/05/02 08:09:40;;;;;;;11.02;2.67;;;9.20;99.90;;;;;;5061752;28;20089;-75
2023/05/02 08:12:06;;;;;;;9.60;2.42;;;9.30;99.90;;;;;;5037142;28;20301;-75
2023/05/02 08:14:32;;;;;;;8.38;2.20;;;9.50;99.90;;;;;;5069403;28;20119;-75
2023/05/02 08:16:58;;;;;;;8.90;2.20;;;9.60;99.90;;;;;;5056781;28;20024;-75
2023/05/02 08:19:24;;;;;;;9.10;2.00;;;9.50;99.90;;;;;;5058009;28;20028;-74
2023/05/02 08:21:50;;;;;;;6.82;2.00;;;9.50;99.90;;;;;;5066313;28;20044;-75
2023/05/02 08:24:15;;;;;;;9.32;2.30;;;9.40;99.90;;;;;;5067557;28;20058;-75
2023/05/02 08:26:41;;;;;;;9.65;2.60;;;9.50;99.90;;;;;;5069131;28;20197;-75
2023/05/02 08:29:07;;;;;;;7.35;1.70;;;9.60;99.90;;;;;;5062021;28;20033;-75
2023/05/02 08:31:32;;;;;;;7.70;1.83;;;9.60;99.90;;;;;;5043666;28;20331;-75
2023/05/02 08:33:58;;;;;;;8.20;1.90;;;9.70;99.90;;;;;;5066756;28;20047;-75
2023/05/02 08:36:26;;;;;;;9.55;1.98;;;9.80;99.90;;;;;;5074191;28;20042;-75
2023/05/02 08:38:52;;;;;;;8.02;2.10;;;9.70;99.90;;;;;;5062738;28;20174;-75
2023/05/02 08:41:18;;;;;;;11.93;2.40;;;9.70;99.90;;;;;;5068663;28;20036;-75
2023/05/02 08:43:45;;;;;;;7.45;1.80;;;9.60;99.90;;;;;;5062840;28;20345;-75
2023/05/02 08:46:13;;;;;;;7.38;1.90;;;9.50;99.90;;;;;;5063436;28;20043;-75
2023/05/02 08:48:41;;;;;;;6.70;1.95;;;9.50;99.90;;;;;;5058023;28;20063;-75
2023/05/02 08:51:14;;;;;;;8.20;1.90;;;9.50;99.90;;;;;;5063951;28;20044;-75
2023/05/02 08:53:41;;;;;;;9.05;2.03;;;9.60;99.90;;;;;;5066029;28;20113;-75
2023/05/02 08:56:08;;;;;;;10.05;2.30;;;9.60;99.90;;;;;;5066668;28;20134;-76
2023/05/02 08:58:35;;;;;;;10.60;1.98;;;9.70;99.90;;;;;;5074010;28;20259;-75
2023/05/02 09:01:03;;;;;;;8.27;2.10;;;10.00;99.90;;;;;;5051777;28;20136;-75
2023/05/02 09:03:33;;;;;;;9.65;1.83;;;10.20;99.90;;;;;;5050873;28;20092;-76
2023/05/02 09:06:08;;;;;;;8.82;1.90;;;10.40;99.90;;;;;;5067269;28;20029;-75
2023/05/02 09:08:38;;;;;;;7.35;1.70;;;10.30;99.90;;;;;;5080707;28;20036;-75
2023/05/02 09:11:04;;;;;;;5.85;1.80;;;10.20;99.90;;;;;;5057938;28;20159;-75
2023/05/02 09:13:35;;;;;;;7.43;1.83;;;10.20;99.90;;;;;;5067445;28;20058;-75
2023/05/02 09:16:15;;;;;;;12.15;1.80;;;10.20;99.90;;;;;;5070030;28;20028;-75
2023/05/02 09:18:43;;;;;;;8.50;1.95;;;10.10;99.90;;;;;;5063879;28;20036;-75
2023/05/02 09:21:20;;;;;;;8.35;1.90;;;10.10;99.90;;;;;;5100100;28;20032;-75
2023/05/02 09:23:55;;;;;;;14.25;1.80;;;10.30;99.90;;;;;;5078932;28;20058;-75
2023/05/02 09:26:30;;;;;;;9.35;1.98;;;10.40;99.90;;;;;;5066642;28;20051;-75
2023/05/02 09:28:56;;;;;;;10.43;2.00;;;10.30;99.90;;;;;;5067848;28;20068;-75
2023/05/02 09:31:27;;;;;;;8.30;2.15;;;10.30;99.90;;;;;;5065324;28;20032;-75
2023/05/02 09:33:54;;;;;;;6.38;1.70;;;10.10;99.90;;;;;;5050444;28;20143;-75
2023/05/02 09:36:20;;;;;;;9.15;2.00;;;10.10;99.90;;;;;;5070948;28;20040;-74
2023/05/02 09:38:48;;;;;;;7.05;1.70;;;10.00;99.90;;;;;;5089238;28;20197;-75
2023/05/02 09:41:16;;;;;;;7.50;1.73;;;9.90;99.90;;;;;;5045902;28;20048;-75
2023/05/02 09:43:42;;;;;;;8.32;2.33;;;9.90;99.90;;;;;;5067164;28;20029;-75
2023/05/02 09:46:11;;;;;;;9.07;1.90;;;9.90;99.90;;;;;;5069180;28;20029;-75
2023/05/02 09:48:57;;;;;;;7.93;1.92;;;9.90;99.90;;;;;;5065123;28;20178;-75
2023/05/02 09:51:24;;;;;;;6.82;1.70;;;9.90;99.90;;;;;;5039688;28;20041;-75
2023/05/02 09:53:50;;;;;;;9.93;1.90;;;10.10;99.90;;;;;;5027738;28;20035;-75
2023/05/02 09:56:17;;;;;;;8.77;2.15;;;10.30;99.90;;;;;;5065149;28;20058;-74
2023/05/02 09:58:43;;;;;;;10.95;2.05;;;10.30;99.90;;;;;;5065390;28;20029;-75
2023/05/02 10:01:15;;;;;;;8.75;1.92;;;10.40;99.90;;;;;;5066596;28;20163;-75
2023/05/02 10:03:42;;;;;;;9.87;1.80;;;10.40;99.90;;;;;;5071233;28;20070;-75
2023/05/02 10:06:09;;;;;;;8.68;2.13;;;10.40;99.90;;;;;;5069506;28;20053;-75
2023/05/02 10:08:35;;;;;;;7.07;2.03;;;10.30;99.90;;;;;;5041975;28;20035;-76
2023/05/02 10:11:06;;;;;;;10.00;2.20;;;10.20;99.90;;;;;;5055749;28;20036;-76
2023/05/02 10:13:33;;;;;;;9.38;2.20;;;10.10;99.90;;;;;;5053696;28;20281;-75
2023/05/02 10:16:03;;;;;;;10.60;2.40;;;10.00;99.90;;;;;;5051241;28;20044;-75
2023/05/02 10:19:07;;;;;;;7.00;1.80;;;9.90;99.90;;;;;;5069406;28;20029;-75
2023/05/02 10:21:35;;;;;;;5.88;1.85;;;9.90;99.90;;;;;;5076051;28;20041;-75
2023/05/02 10:24:03;;;;;;;12.02;2.13;;;10.10;99.90;;;;;;5050076;28;20041;-75
2023/05/02 10:26:29;;;;;;;10.10;2.03;;;10.10;99.90;;;;;;5068909;28;20108;-75
2023/05/02 10:28:55;;;;;;;10.45;2.05;;;10.10;99.90;;;;;;5062756;28;20327;-75
2023/05/02 10:31:21;;;;;;;7.40;2.33;;;10.10;99.90;;;;;;5071023;28;20041;-75
2023/05/02 10:33:53;;;;;;;13.65;2.40;;;10.10;99.90;;;;;;5057014;28;20056;-75
2023/05/02 10:36:21;;;;;;;10.20;2.33;;;10.20;99.90;;;;;;5074240;28;20036;-75
2023/05/02 10:38:47;;;;;;;6.95;1.80;;;10.40;99.90;;;;;;5083166;28;20040;-75
2023/05/02 10:41:33;;;;;;;9.60;1.92;;;10.40;99.90;;;;;;5072521;28;20048;-75
2023/05/02 10:43:59;;;;;;;6.78;1.70;;;10.60;99.90;;;;;;5048684;28;20045;-75
2023/05/02 10:46:36;;;;;;;9.93;2.00;;;10.60;99.90;;;;;;5072366;28;20168;-75
2023/05/02 10:49:07;;;;;;;8.45;1.98;;;10.70;99.90;;;;;;5065842;28;20028;-75
2023/05/02 10:51:34;;;;;;;8.35;1.80;;;10.90;99.90;;;;;;5058094;28;20327;-75
2023/05/02 10:54:18;;;;;;;7.88;1.83;;;11.30;99.90;;;;;;5055703;28;20323;-75
2023/05/02 10:57:04;;;;;;;5.82;1.70;;;11.50;99.90;;;;;;5070326;28;20040;-75
2023/05/02 10:59:38;;;;;;;8.68;1.80;;;11.40;99.90;;;;;;5085798;28;20079;-75
2023/05/02 11:02:22;;;;;;;8.77;1.70;;;11.10;99.90;;;;;;5061812;28;20148;-75
2023/05/02 11:05:17;;;;;;;9.77;2.00;;;10.70;99.90;;;;;;5066794;28;20039;-75
2023/05/02 11:07:43;;;;;;;8.90;2.00;;;10.60;99.90;;;;;;5059204;28;20052;-75
2023/05/02 11:10:20;;;;;;;5.57;1.77;;;10.40;99.90;;;;;;5059323;28;20200;-75
2023/05/02 11:12:55;;;;;;;6.70;1.73;;;10.30;99.90;;;;;;5060366;28;20439;-75
2023/05/02 11:15:26;;;;;;;8.90;2.05;;;10.30;99.90;;;;;;5061095;28;20084;-76
2023/05/02 11:18:10;;;;;;;8.85;2.00;;;10.40;99.90;;;;;;5048195;28;20146;-75
2023/05/02 11:20:40;;;;;;;6.80;1.88;;;10.50;99.90;;;;;;5062351;28;20036;-75
2023/05/02 11:23:15;;;;;;;9.25;2.10;;;10.70;99.90;;;;;;5059841;28;20031;-75
2023/05/02 11:26:05;;;;;;;8.15;1.77;;;10.90;99.90;;;;;;5049522;28;20188;-75
2023/05/02 11:28:37;;;;;;;7.20;1.63;;;10.80;99.90;;;;;;5043351;28;20077;-75
2023/05/02 11:31:05;;;;;;;8.15;1.92;;;11.10;99.90;;;;;;5063976;28;20040;-75
2023/05/02 11:33:31;;;;;;;7.57;1.90;;;10.90;99.90;;;;;;5068194;28;20047;-74
2023/05/02 11:35:57;;;;;;;6.25;1.67;;;10.70;99.90;;;;;;5081485;28;20057;-76
2023/05/02 11:38:24;;;;;;;6.28;1.70;;;10.70;99.90;;;;;;5081590;28;20086;-75
2023/05/02 11:40:53;;;;;;;6.25;1.92;;;10.60;99.90;;;;;;5051547;28;20032;-75
2023/05/02 11:43:24;;;;;;;5.60;1.45;;;10.60;99.90;;;;;;5076526;28;20104;-75
2023/05/02 11:45:50;;;;;;;5.03;1.58;;;10.50;99.90;;;;;;5056887;28;20039;-75
2023/05/02 11:48:18;;;;;;;6.30;1.70;;;10.50;99.90;;;;;;5081149;28;20140;-75
2023/05/02 11:50:44;;;;;;;7.20;1.70;;;10.50;99.90;;;;;;5077127;28;20294;-75
2023/05/02 11:53:15;;;;;;;7.07;1.50;;;10.50;99.90;;;;;;5081137;28;20096;-75
2023/05/02 11:55:51;;;;;;;5.70;1.70;;;10.60;99.90;;;;;;5054487;28;20024;-75
2023/05/02 11:58:19;;;;;;;6.07;1.50;;;10.80;99.90;;;;;;5059921;28;20369;-75
2023/05/02 12:00:46;;;;;;;11.43;1.75;;;11.20;99.90;;;;;;5069465;28;20079;-75
2023/05/02 12:03:32;;;;;;;4.25;1.40;;;11.30;99.90;;;;;;5069936;28;20029;-75
2023/05/02 12:06:17;;;;;;;3.17;1.15;;;11.20;99.90;;;;;;5058884;28;20036;-75
2023/05/02 12:08:43;;;;;;;7.72;1.50;;;11.20;99.90;;;;;;5070227;28;20036;-75
2023/05/02 12:11:13;;;;;;;4.00;1.38;;;11.50;99.90;;;;;;5067801;28;20020;-75
2023/05/02 12:13:49;;;;;;;3.90;1.20;;;11.80;99.90;;;;;;5062769;28;20127;-75
2023/05/02 12:16:16;;;;;;;3.63;1.20;;;12.00;99.90;;;;;;5063508;28;20029;-76
2023/05/02 12:18:42;;;;;;;4.45;1.15;;;12.20;99.90;;;;;;5082356;28;20213;-75
2023/05/02 12:21:08;;;;;;;3.83;1.15;;;12.30;99.90;;;;;;5070821;28;20138;-75
2023/05/02 12:23:34;;;;;;;3.70;1.17;;;12.00;99.90;;;;;;5062785;28;20054;-75
2023/05/02 12:26:28;;;;;;;3.72;1.17;;;11.80;99.90;;;;;;5069539;28;20055;-77
2023/05/02 12:28:55;;;;;;;11.75;2.05;;;11.60;99.90;;;;;;5054396;28;20086;-74
2023/05/02 12:31:22;;;;;;;6.43;1.70;;;11.50;99.90;;;;;;5065407;28;20134;-75
2023/05/02 12:33:49;;;;;;;8.27;1.42;;;11.40;99.90;;;;;;5069992;28;20037;-75
2023/05/02 12:36:15;;;;;;;4.35;1.60;;;11.50;99.90;;;;;;5068164;28;20036;-75
2023/05/02 12:38:49;;;;;;;4.47;1.30;;;11.80;99.90;;;;;;5066221;28;20033;-75
2023/05/02 12:41:15;;;;;;;4.25;1.30;;;12.00;99.90;;;;;;5071708;28;20044;-76
2023/05/02 12:43:48;;;;;;;4.20;1.30;;;12.20;99.90;;;;;;5064722;28;20044;-75
2023/05/02 12:46:14;;;;;;;5.35;1.30;;;12.20;99.90;;;;;;5071498;28;20033;-75
2023/05/02 12:48:40;;;;;;;4.82;1.30;;;12.00;99.90;;;;;;5066558;28;20025;-75
2023/05/02 12:51:18;;;;;;;5.70;1.40;;;11.80;99.90;;;;;;5061587;28;20040;-75
2023/05/02 12:53:46;;;;;;;2.67;1.20;;;11.60;99.90;;;;;;5062681;28;20251;-75
2023/05/02 12:56:12;;;;;;;6.25;1.45;;;11.60;99.90;;;;;;5055883;28;20270;-75